createdAt,value
2022-08-23T00:02:08.261Z,101054.00
2022-08-23T00:04:56.905Z,101049.72
2022-08-23T00:07:38.644Z,101053.44
2022-08-23T00:10:11.786Z,101047.25
2022-08-23T00:12:39.823Z,101049.31
2022-08-23T00:15:09.705Z,101055.09
2022-08-23T00:17:37.485Z,101047.19
2022-08-23T00:20:07.037Z,101044.09
2022-08-23T00:22:34.365Z,101040.66
2022-08-23T00:25:01.293Z,101042.69
2022-08-23T00:27:28.557Z,101043.88
2022-08-23T00:29:57.373Z,101046.78
2022-08-23T00:32:33.398Z,101047.97
2022-08-23T00:35:02.203Z,101041.94
2022-08-23T00:37:32.502Z,101045.69
2022-08-23T00:40:00.988Z,101044.97
2022-08-23T00:43:15.444Z,101041.56
2022-08-23T00:46:32.372Z,101044.59
2022-08-23T00:49:04.585Z,101044.94
2022-08-23T00:51:53.216Z,101045.94
2022-08-23T00:54:24.997Z,101042.50
2022-08-23T00:56:54.797Z,101050.03
2022-08-23T00:59:23.063Z,101043.84
2022-08-23T01:01:51.007Z,101044.84
2022-08-23T01:04:19.205Z,101045.88
2022-08-23T01:07:01.221Z,101050.47
2022-08-23T01:09:28.614Z,101054.41
2022-08-23T01:12:31.125Z,101056.44
2022-08-23T01:15:24.669Z,101054.72
2022-08-23T01:18:02.452Z,101061.22
2022-08-23T01:20:42.413Z,101051.97
2022-08-23T01:23:43.252Z,101061.22
2022-08-23T01:26:12.090Z,101054.00
2022-08-23T01:28:40.912Z,101054.00
2022-08-23T01:31:15.193Z,101056.75
2022-08-23T01:33:45.840Z,101050.28
2022-08-23T01:36:16.122Z,101051.97
2022-08-23T01:38:43.568Z,101046.50
2022-08-23T01:41:10.958Z,101039.31
2022-08-23T01:43:37.878Z,101049.38
2022-08-23T01:46:26.911Z,101045.09
2022-08-23T01:48:55.570Z,101048.84
2022-08-23T01:51:24.001Z,101047.16
2022-08-23T01:53:51.942Z,101047.16
2022-08-23T01:56:29.514Z,101046.28
2022-08-23T01:59:10.450Z,101046.28
2022-08-23T02:01:43.329Z,101047.59
2022-08-23T02:04:10.274Z,101046.06
2022-08-23T02:06:38.449Z,101039.19
2022-08-23T02:09:17.218Z,101055.91
2022-08-23T02:11:46.264Z,101047.28
2022-08-23T02:14:20.238Z,101049.31
2022-08-23T02:16:59.943Z,101049.81
2022-08-23T02:19:33.674Z,101052.69
2022-08-23T02:22:03.416Z,101050.22
2022-08-23T02:24:31.529Z,101046.78
2022-08-23T02:27:04.158Z,101048.81
2022-08-23T02:29:38.382Z,101047.09
2022-08-23T02:32:07.031Z,101050.16
2022-08-23T02:34:37.593Z,101050.47
2022-08-23T02:37:07.357Z,101045.59
2022-08-23T02:39:35.535Z,101046.91
2022-08-23T02:42:06.963Z,101047.53
2022-08-23T02:44:35.601Z,101049.88
2022-08-23T02:47:03.585Z,101054.78
2022-08-23T02:49:30.465Z,101055.06
2022-08-23T02:51:57.323Z,101058.84
2022-08-23T02:54:24.807Z,101074.34
2022-08-23T02:56:52.696Z,101066.75
2022-08-23T02:59:19.726Z,101067.16
2022-08-23T03:01:47.714Z,101073.69
2022-08-23T03:04:27.377Z,101080.06
2022-08-23T03:06:54.953Z,101079.53
2022-08-23T03:09:22.071Z,101085.69
2022-08-23T03:11:50.659Z,101086.03
2022-08-23T03:14:19.633Z,101086.34
2022-08-23T03:16:46.913Z,101084.81
2022-08-23T03:19:14.095Z,101080.06
2022-08-23T03:21:43.312Z,101088.53
2022-08-23T03:24:11.997Z,101087.81
2022-08-23T03:26:45.884Z,101095.75
2022-08-23T03:29:15.012Z,101084.50
2022-08-23T03:32:02.945Z,101096.00
2022-08-23T03:34:34.750Z,101093.00
2022-08-23T03:37:01.985Z,101096.44
2022-08-23T03:39:29.184Z,101096.16
2022-08-23T03:41:59.024Z,101095.44
2022-08-23T03:44:31.280Z,101099.03
2022-08-23T03:46:58.097Z,101099.03
2022-08-23T03:49:27.048Z,101092.41
2022-08-23T03:51:56.109Z,101108.50
2022-08-23T03:54:23.129Z,101103.75
2022-08-23T03:57:03.086Z,101110.78
2022-08-23T03:59:37.253Z,101107.91
2022-08-23T04:02:08.907Z,101100.72
2022-08-23T04:04:36.097Z,101108.78
2022-08-23T04:07:22.217Z,101107.63
2022-08-23T04:09:55.288Z,101115.97
2022-08-23T04:12:25.045Z,101113.38
2022-08-23T04:14:53.495Z,101109.06
2022-08-23T04:17:24.257Z,101109.94
2022-08-23T04:19:52.976Z,101115.97
2022-08-23T04:22:20.889Z,101117.38
2022-08-23T04:24:48.767Z,101109.75
2022-08-23T04:27:17.019Z,101111.34
2022-08-23T04:29:45.499Z,101107.56
2022-08-23T04:32:12.714Z,101114.78
2022-08-23T04:34:45.648Z,101114.78
2022-08-23T04:37:15.060Z,101107.28
2022-08-23T04:40:01.398Z,101109.88
2022-08-23T04:42:35.364Z,101115.91
2022-08-23T04:45:02.423Z,101113.88
2022-08-23T04:47:29.641Z,101115.28
2022-08-23T04:49:59.536Z,101124.19
2022-08-23T04:52:26.379Z,101113.13
2022-08-23T04:54:53.766Z,101128.81
2022-08-23T04:57:39.710Z,101127.41
2022-08-23T05:00:07.629Z,101128.53
2022-08-23T05:02:36.150Z,101133.00
2022-08-23T05:05:03.957Z,101136.44
2022-08-23T05:07:42.717Z,101133.09
2022-08-23T05:10:15.165Z,101136.25
2022-08-23T05:12:46.207Z,101128.75
2022-08-23T05:15:14.182Z,101138.56
2022-08-23T05:17:45.850Z,101131.06
2022-08-23T05:20:13.029Z,101133.66
2022-08-23T05:22:42.465Z,101140.25
2022-08-23T05:25:21.125Z,101139.31
2022-08-23T05:27:50.109Z,101132.94
2022-08-23T05:30:16.994Z,101133.16
2022-08-23T05:32:44.389Z,101141.66
2022-08-23T05:35:12.770Z,101142.38
2022-08-23T05:37:43.179Z,101145.25
2022-08-23T05:40:11.933Z,101146.13
2022-08-23T05:42:49.593Z,101155.75
2022-08-23T05:45:21.747Z,101161.63
2022-08-23T05:47:49.882Z,101165.63
2022-08-23T05:50:26.197Z,101174.06
2022-08-23T05:52:53.123Z,101184.25
2022-08-23T05:55:21.894Z,101182.78
2022-08-23T05:58:09.904Z,101179.81
2022-08-23T06:00:40.604Z,101184.22
2022-08-23T06:03:09.167Z,101180.38
2022-08-23T06:05:40.763Z,101181.84
2022-08-23T06:08:08.149Z,101173.72
2022-08-23T06:10:40.494Z,101180.31
2022-08-23T06:13:43.778Z,101185.13
2022-08-23T06:16:15.105Z,101183.19
2022-08-23T06:18:44.551Z,101181.31
2022-08-23T06:21:32.459Z,101193.22
2022-08-23T06:23:59.762Z,101194.00
2022-08-23T06:26:32.123Z,101198.50
2022-08-23T06:29:06.090Z,101188.25
2022-08-23T06:31:50.047Z,101184.72
2022-08-23T06:34:35.053Z,101190.09
2022-08-23T06:37:22.908Z,101191.53
2022-08-23T06:40:05.150Z,101189.19
2022-08-23T06:42:50.465Z,101189.25
2022-08-23T06:45:30.279Z,101191.50
2022-08-23T06:48:02.635Z,101192.56
2022-08-23T06:50:32.446Z,101198.47
2022-08-23T06:53:18.318Z,101197.28
2022-08-23T06:55:57.702Z,101195.41
2022-08-23T06:58:34.856Z,101196.25
2022-08-23T07:01:44.519Z,101187.31
2022-08-23T07:04:30.566Z,101191.59
2022-08-23T07:07:16.232Z,101185.25
2022-08-23T07:09:43.073Z,101197.47
2022-08-23T07:12:11.534Z,101193.00
2022-08-23T07:14:42.485Z,101199.34
2022-08-23T07:17:09.690Z,101192.81
2022-08-23T07:19:37.145Z,101200.75
2022-08-23T07:22:06.091Z,101203.81
2022-08-23T07:24:34.057Z,101209.66
2022-08-23T07:27:07.132Z,101191.59
2022-08-23T07:29:39.551Z,101203.44
2022-08-23T07:32:07.330Z,101197.91
2022-08-23T07:34:36.066Z,101203.09
2022-08-23T07:37:04.371Z,101200.47
2022-08-23T07:39:38.208Z,101214.22
2022-08-23T07:42:23.568Z,101213.06
2022-08-23T07:44:54.150Z,101218.94
2022-08-23T07:47:23.315Z,101222.41
2022-08-23T07:49:51.829Z,101229.19
2022-08-23T07:52:18.751Z,101235.50
2022-08-23T07:54:48.665Z,101234.50
2022-08-23T07:57:31.369Z,101237.25
2022-08-23T08:00:21.256Z,101233.41
2022-08-23T08:02:59.538Z,101232.84
2022-08-23T08:05:35.193Z,101236.75
2022-08-23T08:08:04.939Z,101237.75
2022-08-23T08:10:32.352Z,101239.16
2022-08-23T08:12:59.334Z,101238.22
2022-08-23T08:15:26.586Z,101235.91
2022-08-23T08:18:02.435Z,101240.47
2022-08-23T08:20:54.656Z,101245.50
2022-08-23T08:23:41.717Z,101243.50
2022-08-23T08:26:37.409Z,101247.00
2022-08-23T08:29:05.818Z,101248.22
2022-08-23T08:31:38.338Z,101247.84
2022-08-23T08:34:07.831Z,101249.59
2022-08-23T08:36:44.046Z,101246.47
2022-08-23T08:39:24.537Z,101249.06
2022-08-23T08:42:31.564Z,101252.91
2022-08-23T08:45:06.404Z,101250.88
2022-08-23T08:47:47.375Z,101249.13
2022-08-23T08:50:24.284Z,101247.75
2022-08-23T08:53:03.759Z,101248.03
2022-08-23T08:55:59.274Z,101262.88
2022-08-23T08:58:48.497Z,101256.78
2022-08-23T09:01:18.346Z,101266.84
2022-08-23T09:03:46.211Z,101265.81
2022-08-23T09:06:34.245Z,101266.88
2022-08-23T09:10:09.938Z,101266.13
2022-08-23T09:13:19.809Z,101260.56
2022-08-23T09:16:28.796Z,101264.78
2022-08-23T09:18:57.136Z,101253.88
2022-08-23T09:21:24.897Z,101262.69
2022-08-23T09:24:00.383Z,101263.34
2022-08-23T09:26:41.073Z,101264.78
2022-08-23T09:29:19.710Z,101269.38
2022-08-23T09:31:55.809Z,101251.66
2022-08-23T09:34:36.230Z,101259.97
2022-08-23T09:37:11.901Z,101256.59
2022-08-23T09:39:43.814Z,101258.81
2022-08-23T09:42:32.290Z,101268.00
2022-08-23T09:45:01.228Z,101263.34
2022-08-23T09:47:44.730Z,101260.00
2022-08-23T09:50:26.781Z,101257.00
2022-08-23T09:53:12.152Z,101267.03
2022-08-23T09:55:49.942Z,101257.88
2022-08-23T09:58:38.517Z,101250.25
2022-08-23T10:01:23.766Z,101250.47
2022-08-23T10:04:15.874Z,101253.75
2022-08-23T10:06:46.316Z,101260.00
2022-08-23T10:09:33.821Z,101251.28
2022-08-23T10:12:04.809Z,101261.56
2022-08-23T10:14:34.816Z,101246.81
2022-08-23T10:17:43.905Z,101250.47
2022-08-23T10:20:30.315Z,101247.91
2022-08-23T10:23:35.532Z,101254.50
2022-08-23T10:26:02.738Z,101251.72
2022-08-23T10:29:12.954Z,101251.72
2022-08-23T10:31:59.323Z,101258.56
2022-08-23T10:35:15.110Z,101247.03
2022-08-23T10:38:03.226Z,101248.97
2022-08-23T10:40:52.105Z,101247.06
2022-08-23T10:43:43.961Z,101247.47
2022-08-23T10:46:11.756Z,101248.75
2022-08-23T10:48:57.037Z,101243.41
2022-08-23T10:51:33.035Z,101247.91
2022-08-23T10:54:18.813Z,101237.88
2022-08-23T10:56:51.098Z,101233.53
2022-08-23T10:59:26.135Z,101238.91
2022-08-23T11:02:42.837Z,101236.34
2022-08-23T11:05:29.050Z,101233.53
2022-08-23T11:08:06.070Z,101238.47
2022-08-23T11:10:56.192Z,101233.13
2022-08-23T11:13:32.130Z,101228.66
2022-08-23T11:16:10.107Z,101243.59
2022-08-23T11:18:48.669Z,101236.94
2022-08-23T11:21:25.715Z,101237.50
2022-08-23T11:24:00.184Z,101236.84
2022-08-23T11:26:36.270Z,101232.44
2022-08-23T11:29:06.196Z,101238.94
2022-08-23T11:32:11.294Z,101237.06
2022-08-23T11:35:31.089Z,101240.84
2022-08-23T11:38:04.829Z,101248.56
2022-08-23T11:40:52.339Z,101246.06
2022-08-23T11:43:32.754Z,101237.53
2022-08-23T11:46:27.716Z,101238.31
2022-08-23T11:49:26.108Z,101239.59
2022-08-23T11:52:06.010Z,101224.66
2022-08-23T11:54:44.720Z,101238.69
2022-08-23T11:57:33.109Z,101226.22
2022-08-23T12:00:28.982Z,101233.00
2022-08-23T12:03:02.438Z,101233.75
2022-08-23T12:05:38.579Z,101231.41
2022-08-23T12:08:08.158Z,101229.41
2022-08-23T12:10:40.671Z,101222.25
2022-08-23T12:13:19.673Z,101223.00
2022-08-23T12:16:16.925Z,101239.00
2022-08-23T12:18:49.911Z,101224.22
2022-08-23T12:21:47.380Z,101231.91
2022-08-23T12:24:32.653Z,101222.44
2022-08-23T12:27:07.205Z,101230.19
2022-08-23T12:30:11.795Z,101237.00
2022-08-23T12:32:59.010Z,101228.06
2022-08-23T12:35:46.779Z,101231.41
2022-08-23T12:38:41.009Z,101244.72
2022-08-23T12:41:59.032Z,101242.00
2022-08-23T12:44:29.323Z,101243.63
2022-08-23T12:47:08.861Z,101241.16
2022-08-23T12:49:36.441Z,101252.47
2022-08-23T12:52:11.936Z,101243.34
2022-08-23T12:54:50.259Z,101243.50
2022-08-23T12:57:37.778Z,101242.13
2022-08-23T13:00:16.983Z,101232.56
2022-08-23T13:02:57.285Z,101238.44
2022-08-23T13:05:36.124Z,101244.16
2022-08-23T13:08:10.968Z,101238.44
2022-08-23T13:10:42.657Z,101244.00
2022-08-23T13:13:13.710Z,101238.34
2022-08-23T13:16:03.752Z,101238.44
2022-08-23T13:18:45.853Z,101228.78
2022-08-23T13:21:31.940Z,101228.38
2022-08-23T13:24:43.844Z,101232.03
2022-08-23T13:27:51.335Z,101232.44
2022-08-23T13:30:19.685Z,101234.84
2022-08-23T13:32:51.290Z,101232.22
2022-08-23T13:35:49.580Z,101229.59
2022-08-23T13:38:41.880Z,101231.44
2022-08-23T13:41:26.303Z,101228.53
2022-08-23T13:43:54.874Z,101223.22
2022-08-23T13:46:31.979Z,101224.91
2022-08-23T13:49:11.898Z,101225.16
2022-08-23T13:51:42.993Z,101225.63
2022-08-23T13:54:15.872Z,101222.91
2022-08-23T13:56:51.178Z,101223.53
2022-08-23T13:59:35.822Z,101229.38
2022-08-23T14:02:08.807Z,101229.09
2022-08-23T14:04:35.690Z,101230.00
2022-08-23T14:07:02.739Z,101220.16
2022-08-23T14:09:29.613Z,101212.59
2022-08-23T14:12:04.049Z,101218.41
2022-08-23T14:14:34.686Z,101211.59
2022-08-23T14:17:03.201Z,101215.00
2022-08-23T14:22:19.238Z,101213.44
2022-08-23T14:24:46.261Z,101223.56
2022-08-23T14:27:13.247Z,101218.88
2022-08-23T14:29:40.260Z,101215.47
2022-08-23T14:32:07.176Z,101210.91
2022-08-23T14:34:34.033Z,101204.66
2022-08-23T14:39:48.064Z,101214.66
2022-08-23T14:42:20.769Z,101210.47
2022-08-23T14:44:48.087Z,101210.25
2022-08-23T14:47:14.930Z,101206.03
2022-08-23T14:49:41.819Z,101202.09
2022-08-23T14:52:09.383Z,101199.56
2022-08-23T14:54:36.886Z,101202.59
2022-08-23T14:57:04.104Z,101201.72
2022-08-23T14:59:30.964Z,101195.16
2022-08-23T15:01:58.780Z,101196.81
2022-08-23T15:04:34.143Z,101199.75
2022-08-23T15:07:19.748Z,101196.66
2022-08-23T15:09:50.429Z,101198.44
2022-08-23T15:15:12.847Z,101208.31
2022-08-23T15:17:54.296Z,101202.16
2022-08-23T15:20:26.552Z,101203.09
2022-08-23T15:22:56.137Z,101198.59
2022-08-23T15:25:25.329Z,101195.00
2022-08-23T15:27:52.686Z,101198.09
2022-08-23T15:30:19.859Z,101200.34
2022-08-23T15:32:52.230Z,101204.06
2022-08-23T15:35:22.561Z,101203.84
2022-08-23T15:37:49.920Z,101201.28
2022-08-23T15:40:16.972Z,101206.66
2022-08-23T15:42:43.906Z,101205.44
2022-08-23T15:45:11.626Z,101202.28
2022-08-23T15:47:51.586Z,101194.31
2022-08-23T15:50:23.266Z,101196.31
2022-08-23T15:52:50.949Z,101206.00
2022-08-23T15:55:19.022Z,101204.50
2022-08-23T15:57:50.613Z,101207.53
2022-08-23T16:00:25.523Z,101207.19
2022-08-23T16:03:19.229Z,101202.63
2022-08-23T16:05:44.348Z,101204.28
2022-08-23T16:08:28.031Z,101201.06
2022-08-23T16:10:56.595Z,101198.00
2022-08-23T16:13:25.546Z,101208.97
2022-08-23T16:15:53.441Z,101202.88
2022-08-23T16:18:20.515Z,101198.78
2022-08-23T16:20:47.327Z,101197.59
2022-08-23T16:23:14.209Z,101193.03
2022-08-23T16:25:42.330Z,101203.47
2022-08-23T16:28:09.572Z,101189.38
2022-08-23T16:30:37.132Z,101204.84
2022-08-23T16:33:04.515Z,101196.13
2022-08-23T16:35:31.368Z,101195.50
2022-08-23T16:37:58.249Z,101192.13
2022-08-23T16:40:25.271Z,101190.19
2022-08-23T16:42:52.805Z,101204.53
2022-08-23T16:45:26.073Z,101204.78
2022-08-23T16:47:54.062Z,101199.13
2022-08-23T16:50:21.004Z,101192.06
2022-08-23T16:52:47.903Z,101195.19
2022-08-23T16:55:14.721Z,101196.66
2022-08-23T16:57:42.109Z,101199.69
2022-08-23T17:00:14.772Z,101204.53
2022-08-23T17:02:43.887Z,101201.94
2022-08-23T17:05:16.032Z,101201.16
2022-08-23T17:07:43.520Z,101201.81
2022-08-23T17:10:14.128Z,101203.63
2022-08-23T17:12:47.107Z,101207.03
2022-08-23T17:15:20.295Z,101203.63
2022-08-23T17:17:48.474Z,101196.50
2022-08-23T17:20:18.154Z,101204.00
2022-08-23T17:22:46.013Z,101205.78
2022-08-23T17:25:15.100Z,101206.25
2022-08-23T17:27:46.187Z,101205.63
2022-08-23T17:30:16.793Z,101212.31
2022-08-23T17:32:45.061Z,101208.44
2022-08-23T17:35:15.001Z,101216.53
2022-08-23T17:37:42.528Z,101210.88
2022-08-23T17:40:15.901Z,101213.28
2022-08-23T17:42:43.878Z,101222.84
2022-08-23T17:45:11.831Z,101213.94
2022-08-23T17:47:39.200Z,101219.72
2022-08-23T17:50:09.068Z,101220.66
2022-08-23T17:52:35.990Z,101224.75
2022-08-23T17:55:02.913Z,101226.06
2022-08-23T17:57:30.394Z,101231.66
2022-08-23T18:00:00.503Z,101234.22
2022-08-23T18:02:27.446Z,101227.38
2022-08-23T18:04:54.344Z,101231.44
2022-08-23T18:07:21.840Z,101236.75
2022-08-23T18:09:48.953Z,101237.63
2022-08-23T18:12:16.627Z,101241.91
2022-08-23T18:14:43.767Z,101239.56
2022-08-23T18:17:10.619Z,101241.91
2022-08-23T18:19:37.499Z,101247.47
2022-08-23T18:22:04.421Z,101244.50
2022-08-23T18:24:31.932Z,101252.81
2022-08-23T18:27:21.211Z,101250.91
2022-08-23T18:29:51.387Z,101251.97
2022-08-23T18:32:19.210Z,101259.44
2022-08-23T18:34:46.525Z,101261.97
2022-08-23T18:37:16.898Z,101262.78
2022-08-23T18:39:44.515Z,101270.91
2022-08-23T18:42:12.118Z,101277.28
2022-08-23T18:44:39.053Z,101268.72
2022-08-23T18:47:06.157Z,101281.50
2022-08-23T18:49:35.955Z,101279.78
2022-08-23T18:52:03.172Z,101286.19
2022-08-23T18:54:33.637Z,101285.28
2022-08-23T18:57:01.228Z,101286.53
2022-08-23T18:59:28.197Z,101289.44
2022-08-23T19:01:55.963Z,101292.84
2022-08-23T19:04:23.067Z,101300.06
2022-08-23T19:06:49.923Z,101308.09
2022-08-23T19:09:21.821Z,101308.88
2022-08-23T19:11:50.163Z,101325.00
2022-08-23T19:14:17.517Z,101320.25
2022-08-23T19:16:48.198Z,101319.34
2022-08-23T19:19:16.935Z,101320.81
2022-08-23T19:21:43.911Z,101325.22
2022-08-23T19:24:10.835Z,101323.06
2022-08-23T19:26:38.179Z,101325.56
2022-08-23T19:29:09.187Z,101322.53
2022-08-23T19:31:42.631Z,101332.31
2022-08-23T19:34:11.381Z,101338.63
2022-08-23T19:36:48.321Z,101339.44
2022-08-23T19:39:19.200Z,101335.09
2022-08-23T19:41:48.633Z,101343.13
2022-08-23T19:44:17.731Z,101340.06
2022-08-23T19:46:45.655Z,101346.03
2022-08-23T19:49:14.941Z,101345.94
2022-08-23T19:51:43.614Z,101344.78
2022-08-23T19:54:12.843Z,101349.19
2022-08-23T19:56:49.089Z,101347.00
2022-08-23T19:59:21.332Z,101349.50
2022-08-23T20:01:50.848Z,101348.16
2022-08-23T20:04:19.820Z,101354.09
2022-08-23T20:06:48.707Z,101352.75
2022-08-23T20:09:16.228Z,101353.53
2022-08-23T20:11:43.651Z,101362.22
2022-08-23T20:14:11.203Z,101358.97
2022-08-23T20:16:38.997Z,101362.34
2022-08-23T20:19:10.749Z,101372.06
2022-08-23T20:21:39.848Z,101372.44
2022-08-23T20:24:14.340Z,101375.97
2022-08-23T20:26:45.516Z,101375.69
2022-08-23T20:29:20.097Z,101379.81
2022-08-23T20:31:54.905Z,101378.91
2022-08-23T20:34:23.404Z,101375.84
2022-08-23T20:36:55.923Z,101382.09
2022-08-23T20:39:24.178Z,101377.34
2022-08-23T20:41:53.041Z,101382.56
2022-08-23T20:44:21.651Z,101390.56
2022-08-23T20:46:53.707Z,101387.31
2022-08-23T20:49:22.515Z,101387.91
2022-08-23T20:51:50.281Z,101387.59
2022-08-23T20:54:18.409Z,101387.47
2022-08-23T20:56:45.777Z,101382.69
2022-08-23T20:59:14.622Z,101386.41
2022-08-23T21:01:41.651Z,101383.66
2022-08-23T21:04:08.582Z,101393.75
2022-08-23T21:06:53.658Z,101380.66
2022-08-23T21:09:24.610Z,101386.09
2022-08-23T21:11:55.842Z,101379.75
2022-08-23T21:14:23.036Z,101379.44
2022-08-23T21:16:49.915Z,101382.94
2022-08-23T21:19:17.268Z,101381.56
2022-08-23T21:21:44.429Z,101377.63
2022-08-23T21:24:12.000Z,101376.81
2022-08-23T21:26:39.974Z,101385.81
2022-08-23T21:29:09.469Z,101379.28
2022-08-23T21:31:37.117Z,101387.22
2022-08-23T21:34:04.722Z,101381.41
2022-08-23T21:36:31.661Z,101376.59
2022-08-23T21:38:58.544Z,101382.66
2022-08-23T21:41:41.129Z,101383.88
2022-08-23T21:44:15.790Z,101380.09
2022-08-23T21:46:43.621Z,101381.84
2022-08-23T21:49:12.514Z,101380.88
2022-08-23T21:51:41.658Z,101381.38
2022-08-23T21:54:12.231Z,101384.66
2022-08-23T21:56:40.728Z,101371.59
2022-08-23T21:59:12.894Z,101380.91
2022-08-23T22:01:41.468Z,101385.72
2022-08-23T22:04:11.671Z,101392.44
2022-08-23T22:06:40.525Z,101394.66
2022-08-23T22:09:10.518Z,101391.38
2022-08-23T22:11:40.607Z,101399.13
2022-08-23T22:14:11.020Z,101393.66
2022-08-23T22:16:38.153Z,101390.72
2022-08-23T22:19:05.219Z,101395.72
2022-08-23T22:21:35.521Z,101395.22
2022-08-23T22:24:02.881Z,101390.94
2022-08-23T22:26:30.087Z,101383.84
2022-08-23T22:28:57.147Z,101395.91
2022-08-23T22:31:24.610Z,101383.16
2022-08-23T22:33:52.874Z,101393.31
2022-08-23T22:36:22.656Z,101389.72
2022-08-23T22:38:51.460Z,101393.31
2022-08-23T22:41:27.215Z,101391.59
2022-08-23T22:43:55.962Z,101395.41
2022-08-23T22:46:23.794Z,101397.47
2022-08-23T22:48:50.758Z,101402.97
2022-08-23T22:51:23.402Z,101404.50
2022-08-23T22:53:54.527Z,101399.16
2022-08-23T22:56:28.140Z,101403.81
2022-08-23T22:58:55.302Z,101405.03
2022-08-23T23:01:28.163Z,101409.84
2022-08-23T23:03:58.532Z,101401.94
2022-08-23T23:06:26.418Z,101406.75
2022-08-23T23:08:54.288Z,101407.78
2022-08-23T23:11:22.350Z,101406.41
2022-08-23T23:13:50.092Z,101405.38
2022-08-23T23:16:22.163Z,101409.81
2022-08-23T23:19:08.912Z,101420.09
2022-08-23T23:21:43.171Z,101414.06
2022-08-23T23:24:13.902Z,101408.00
2022-08-23T23:26:41.784Z,101411.75
2022-08-23T23:29:14.888Z,101407.09
2022-08-23T23:31:42.035Z,101399.38
2022-08-23T23:34:09.068Z,101405.50
2022-08-23T23:36:37.533Z,101403.13
2022-08-23T23:39:07.299Z,101396.19
2022-08-23T23:41:34.540Z,101392.06
2022-08-23T23:44:02.046Z,101402.00
2022-08-23T23:46:29.013Z,101403.38
2022-08-23T23:48:56.073Z,101402.09
2022-08-23T23:51:27.936Z,101410.50
2022-08-23T23:53:56.961Z,101399.84
2022-08-23T23:56:27.700Z,101399.31
2022-08-23T23:58:56.624Z,101397.06
